Whites Crossing, Mississippi
Current Conditions -  °F | °C
As of 9:53 AM on Thursday 29 Jan 2015 (Local Time) from KHBG Reporting Station
Few Clouds Few Clouds  
Wind Chill: 62°   Ceiling: Unl
Heat Index: 62°   Visibility: 10mi
Dew Point: 49°   Wind: 14mph
Humidity: 62%   Direction: 170°S
Pressure: 30.27"   Gusts: NA
Location:  30.8678°N, 89.1157°W
Report Text: KHBG 291553Z AUTO 17012KT 10SM FEW031 17/09 A3027 RMK AO2 SLP250 T01670094
Loading
Personal Weather Stations






























Interactive Weather Map New forecast layout! Learn more

10-Day Weather Forecast

Advertisements
Track Severe Weather on mobile